sensor_id;sensor_type;location;lat;lon;timestamp;pressure;altitude;pressure_sealevel;temperature;humidity
23433;BME280;41331;45.412;10.992;2022-08-01T00:00:51;100779.97;;;26.78;40.75
23433;BME280;41331;45.412;10.992;2022-08-01T00:03:19;100768.50;;;26.93;40.52
23433;BME280;41331;45.412;10.992;2022-08-01T00:05:47;100774.41;;;26.78;40.95
23433;BME280;41331;45.412;10.992;2022-08-01T00:08:14;100780.50;;;26.73;41.76
23433;BME280;41331;45.412;10.992;2022-08-01T00:10:42;100773.91;;;26.64;41.50
23433;BME280;41331;45.412;10.992;2022-08-01T00:13:09;100773.19;;;26.59;41.08
23433;BME280;41331;45.412;10.992;2022-08-01T00:15:39;100775.13;;;26.63;41.96
23433;BME280;41331;45.412;10.992;2022-08-01T00:18:17;100775.84;;;26.47;42.89
23433;BME280;41331;45.412;10.992;2022-08-01T00:20:45;100770.13;;;26.54;41.89
23433;BME280;41331;45.412;10.992;2022-08-01T00:23:12;100770.34;;;26.43;42.73
23433;BME280;41331;45.412;10.992;2022-08-01T00:25:39;100770.38;;;26.40;41.93
23433;BME280;41331;45.412;10.992;2022-08-01T00:28:07;100772.38;;;26.39;42.54
23433;BME280;41331;45.412;10.992;2022-08-01T00:30:36;100771.59;;;26.39;42.82
23433;BME280;41331;45.412;10.992;2022-08-01T00:33:03;100774.44;;;26.35;42.87
23433;BME280;41331;45.412;10.992;2022-08-01T00:35:30;100769.66;;;26.35;42.88
23433;BME280;41331;45.412;10.992;2022-08-01T00:37:58;100773.66;;;26.34;43.50
23433;BME280;41331;45.412;10.992;2022-08-01T00:40:25;100773.06;;;26.03;44.19
23433;BME280;41331;45.412;10.992;2022-08-01T00:42:52;100773.19;;;25.96;44.33
23433;BME280;41331;45.412;10.992;2022-08-01T00:45:20;100775.34;;;26.08;44.17
23433;BME280;41331;45.412;10.992;2022-08-01T00:47:47;100779.19;;;25.95;44.07
23433;BME280;41331;45.412;10.992;2022-08-01T00:50:21;100777.25;;;25.92;44.09
23433;BME280;41331;45.412;10.992;2022-08-01T00:52:51;100786.34;;;25.96;44.17
23433;BME280;41331;45.412;10.992;2022-08-01T00:55:19;100778.63;;;26.03;44.37
23433;BME280;41331;45.412;10.992;2022-08-01T00:57:48;100784.94;;;26.07;44.22
23433;BME280;41331;45.412;10.992;2022-08-01T01:00:34;100781.66;;;25.66;45.62
23433;BME280;41331;45.412;10.992;2022-08-01T01:03:20;100776.13;;;25.62;45.45
23433;BME280;41331;45.412;10.992;2022-08-01T01:12:00;100779.84;;;25.79;45.95
23433;BME280;41331;45.412;10.992;2022-08-01T01:14:33;100780.78;;;25.69;46.92
23433;BME280;41331;45.412;10.992;2022-08-01T01:17:06;100783.88;;;25.78;44.92
23433;BME280;41331;45.412;10.992;2022-08-01T01:19:39;100783.81;;;25.81;45.19
23433;BME280;41331;45.412;10.992;2022-08-01T01:22:17;100784.19;;;25.56;47.24
23433;BME280;41331;45.412;10.992;2022-08-01T01:25:09;100782.97;;;25.57;47.99
23433;BME280;41331;45.412;10.992;2022-08-01T01:28:33;100782.53;;;25.59;45.92
23433;BME280;41331;45.412;10.992;2022-08-01T01:31:02;100778.22;;;25.54;46.34
23433;BME280;41331;45.412;10.992;2022-08-01T01:33:31;100777.41;;;25.57;45.85
23433;BME280;41331;45.412;10.992;2022-08-01T01:36:05;100778.00;;;25.69;46.17
23433;BME280;41331;45.412;10.992;2022-08-01T01:38:41;100779.66;;;25.66;45.42
23433;BME280;41331;45.412;10.992;2022-08-01T01:41:14;100778.88;;;25.66;45.69
23433;BME280;41331;45.412;10.992;2022-08-01T01:43:43;100776.13;;;25.62;45.18
23433;BME280;41331;45.412;10.992;2022-08-01T01:46:13;100770.25;;;25.56;45.15
23433;BME280;41331;45.412;10.992;2022-08-01T01:48:43;100769.47;;;25.56;44.97
23433;BME280;41331;45.412;10.992;2022-08-01T01:51:13;100773.84;;;25.57;45.35
23433;BME280;41331;45.412;10.992;2022-08-01T01:53:43;100770.91;;;25.64;45.51
23433;BME280;41331;45.412;10.992;2022-08-01T01:56:14;100777.34;;;25.61;46.25
23433;BME280;41331;45.412;10.992;2022-08-01T01:58:44;100781.41;;;25.56;47.48
23433;BME280;41331;45.412;10.992;2022-08-01T02:01:12;100773.94;;;25.50;48.07
23433;BME280;41331;45.412;10.992;2022-08-01T02:03:42;100780.16;;;25.34;46.51
23433;BME280;41331;45.412;10.992;2022-08-01T02:06:13;100777.44;;;25.30;47.37
23433;BME280;41331;45.412;10.992;2022-08-01T02:08:44;100778.38;;;25.20;47.13
23433;BME280;41331;45.412;10.992;2022-08-01T02:11:13;100774.88;;;25.16;47.30
23433;BME280;41331;45.412;10.992;2022-08-01T02:13:57;100777.97;;;25.22;47.58
23433;BME280;41331;45.412;10.992;2022-08-01T02:16:29;100776.28;;;25.28;47.54
23433;BME280;41331;45.412;10.992;2022-08-01T02:19:01;100776.44;;;25.17;48.27
23433;BME280;41331;45.412;10.992;2022-08-01T02:21:32;100768.84;;;25.18;48.37
23433;BME280;41331;45.412;10.992;2022-08-01T02:24:10;100770.84;;;25.17;48.67
23433;BME280;41331;45.412;10.992;2022-08-01T02:26:47;100768.16;;;25.10;49.25
23433;BME280;41331;45.412;10.992;2022-08-01T02:29:25;100758.22;;;25.09;49.38
23433;BME280;41331;45.412;10.992;2022-08-01T02:31:54;100763.94;;;24.98;49.85
23433;BME280;41331;45.412;10.992;2022-08-01T02:34:24;100762.34;;;24.97;49.59
23433;BME280;41331;45.412;10.992;2022-08-01T02:36:56;100761.56;;;24.97;49.56
23433;BME280;41331;45.412;10.992;2022-08-01T02:39:24;100762.00;;;24.95;49.09
23433;BME280;41331;45.412;10.992;2022-08-01T02:41:57;100772.91;;;24.83;49.90
23433;BME280;41331;45.412;10.992;2022-08-01T02:44:31;100768.81;;;24.91;49.10
23433;BME280;41331;45.412;10.992;2022-08-01T02:47:01;100768.03;;;24.90;49.47
23433;BME280;41331;45.412;10.992;2022-08-01T02:49:42;100768.28;;;24.99;49.22
23433;BME280;41331;45.412;10.992;2022-08-01T02:52:14;100767.50;;;24.99;49.64
23433;BME280;41331;45.412;10.992;2022-08-01T02:54:47;100771.38;;;25.05;49.33
23433;BME280;41331;45.412;10.992;2022-08-01T02:57:16;100773.81;;;25.03;49.51
23433;BME280;41331;45.412;10.992;2022-08-01T02:59:47;100766.13;;;24.84;49.78
23433;BME280;41331;45.412;10.992;2022-08-01T03:02:17;100767.75;;;24.81;51.15
23433;BME280;41331;45.412;10.992;2022-08-01T03:04:49;100767.75;;;24.81;50.38
23433;BME280;41331;45.412;10.992;2022-08-01T03:07:23;100758.66;;;24.77;50.46
23433;BME280;41331;45.412;10.992;2022-08-01T03:10:00;100766.53;;;24.82;50.83
23433;BME280;41331;45.412;10.992;2022-08-01T03:12:29;100767.34;;;24.83;49.86
23433;BME280;41331;45.412;10.992;2022-08-01T03:14:59;100774.31;;;24.94;48.99
23433;BME280;41331;45.412;10.992;2022-08-01T03:17:28;100764.72;;;24.99;49.57
23433;BME280;41331;45.412;10.992;2022-08-01T03:19:58;100764.72;;;24.99;48.84
23433;BME280;41331;45.412;10.992;2022-08-01T03:22:27;100767.41;;;25.06;48.48
23433;BME280;41331;45.412;10.992;2022-08-01T03:24:57;100770.25;;;25.02;49.19
23433;BME280;41331;45.412;10.992;2022-08-01T03:27:26;100768.91;;;24.84;49.63
23433;BME280;41331;45.412;10.992;2022-08-01T03:29:56;100767.28;;;24.86;50.06
23433;BME280;41331;45.412;10.992;2022-08-01T03:32:27;100759.09;;;24.75;50.10
23433;BME280;41331;45.412;10.992;2022-08-01T03:34:55;100760.84;;;24.62;49.82
23433;BME280;41331;45.412;10.992;2022-08-01T03:37:29;100763.66;;;24.59;50.44
23433;BME280;41331;45.412;10.992;2022-08-01T03:40:07;100758.56;;;24.53;50.38
23433;BME280;41331;45.412;10.992;2022-08-01T03:42:48;100761.50;;;24.39;52.90
23433;BME280;41331;45.412;10.992;2022-08-01T03:45:30;100760.81;;;24.28;52.39
23433;BME280;41331;45.412;10.992;2022-08-01T03:48:02;100760.00;;;24.27;52.91
23433;BME280;41331;45.412;10.992;2022-08-01T03:50:31;100763.25;;;24.22;52.03
23433;BME280;41331;45.412;10.992;2022-08-01T03:53:02;100761.72;;;24.18;52.90
23433;BME280;41331;45.412;10.992;2022-08-01T03:55:31;100766.22;;;24.04;55.88
23433;BME280;41331;45.412;10.992;2022-08-01T03:58:00;100760.59;;;24.12;54.37
23433;BME280;41331;45.412;10.992;2022-08-01T04:00:33;100770.81;;;24.22;52.71
23433;BME280;41331;45.412;10.992;2022-08-01T04:03:02;100768.25;;;24.00;52.80
23433;BME280;41331;45.412;10.992;2022-08-01T04:05:30;100766.66;;;23.99;53.08
23433;BME280;41331;45.412;10.992;2022-08-01T04:07:58;100761.97;;;23.89;55.30
23433;BME280;41331;45.412;10.992;2022-08-01T04:10:26;100768.84;;;23.77;54.86
23433;BME280;41331;45.412;10.992;2022-08-01T04:12:54;100771.50;;;23.92;54.29
23433;BME280;41331;45.412;10.992;2022-08-01T04:15:21;100773.53;;;23.88;54.89
23433;BME280;41331;45.412;10.992;2022-08-01T04:17:49;100768.25;;;24.00;54.56
23433;BME280;41331;45.412;10.992;2022-08-01T04:20:16;100773.75;;;24.04;53.55
23433;BME280;41331;45.412;10.992;2022-08-01T04:22:44;100774.00;;;24.20;52.85
23433;BME280;41331;45.412;10.992;2022-08-01T04:25:26;100776.69;;;24.27;53.55
23433;BME280;41331;45.412;10.992;2022-08-01T04:27:56;100775.59;;;24.21;55.42
23433;BME280;41331;45.412;10.992;2022-08-01T04:30:27;100777.16;;;24.22;54.45
23433;BME280;41331;45.412;10.992;2022-08-01T04:33:01;100782.97;;;24.39;52.45
23433;BME280;41331;45.412;10.992;2022-08-01T04:35:32;100787.94;;;24.54;51.32
23433;BME280;41331;45.412;10.992;2022-08-01T04:38:22;100788.69;;;24.59;52.20
23433;BME280;41331;45.412;10.992;2022-08-01T04:40:54;100787.44;;;24.63;50.39
23433;BME280;41331;45.412;10.992;2022-08-01T04:43:23;100784.97;;;24.72;50.44
23433;BME280;41331;45.412;10.992;2022-08-01T04:45:51;100794.13;;;24.69;52.44
23433;BME280;41331;45.412;10.992;2022-08-01T04:48:19;100805.66;;;24.71;52.25
23433;BME280;41331;45.412;10.992;2022-08-01T04:50:49;100801.06;;;24.88;49.97
23433;BME280;41331;45.412;10.992;2022-08-01T04:53:19;100801.53;;;24.83;52.72
23433;BME280;41331;45.412;10.992;2022-08-01T04:55:49;100805.22;;;24.73;52.90
23433;BME280;41331;45.412;10.992;2022-08-01T04:58:17;100802.59;;;24.59;51.84
23433;BME280;41331;45.412;10.992;2022-08-01T05:00:45;100808.38;;;24.75;52.75
23433;BME280;41331;45.412;10.992;2022-08-01T05:03:13;100800.69;;;24.86;52.32
23433;BME280;41331;45.412;10.992;2022-08-01T05:05:41;100805.16;;;24.80;52.66
23433;BME280;41331;45.412;10.992;2022-08-01T05:08:08;100799.47;;;24.87;50.84
23433;BME280;41331;45.412;10.992;2022-08-01T05:10:37;100797.66;;;25.04;51.08
23433;BME280;41331;45.412;10.992;2022-08-01T05:13:04;100802.78;;;25.09;51.85
23433;BME280;41331;45.412;10.992;2022-08-01T05:15:36;100798.28;;;25.19;51.50
23433;BME280;41331;45.412;10.992;2022-08-01T05:18:04;100793.97;;;25.14;50.86
23433;BME280;41331;45.412;10.992;2022-08-01T05:20:34;100797.94;;;25.17;51.36
23433;BME280;41331;45.412;10.992;2022-08-01T05:23:03;100796.94;;;25.30;51.98
23433;BME280;41331;45.412;10.992;2022-08-01T05:25:31;100797.56;;;25.42;52.41
23433;BME280;41331;45.412;10.992;2022-08-01T05:28:19;100789.69;;;25.37;51.38
23433;BME280;41331;45.412;10.992;2022-08-01T05:30:47;100796.56;;;25.55;52.41
23433;BME280;41331;45.412;10.992;2022-08-01T05:33:14;100798.38;;;25.66;51.68
23433;BME280;41331;45.412;10.992;2022-08-01T05:35:41;100801.81;;;25.73;50.35
23433;BME280;41331;45.412;10.992;2022-08-01T05:38:15;100797.25;;;25.87;51.33
23433;BME280;41331;45.412;10.992;2022-08-01T05:40:43;100797.81;;;25.78;50.36
23433;BME280;41331;45.412;10.992;2022-08-01T05:43:11;100802.53;;;25.81;50.06
23433;BME280;41331;45.412;10.992;2022-08-01T05:45:38;100799.97;;;25.90;50.99
23433;BME280;41331;45.412;10.992;2022-08-01T05:48:05;100810.28;;;25.93;49.85
23433;BME280;41331;45.412;10.992;2022-08-01T05:50:33;100810.81;;;26.08;50.33
23433;BME280;41331;45.412;10.992;2022-08-01T05:53:01;100808.88;;;26.05;50.43
23433;BME280;41331;45.412;10.992;2022-08-01T05:55:28;100809.78;;;26.22;50.83
23433;BME280;41331;45.412;10.992;2022-08-01T05:57:56;100813.88;;;26.37;49.97
23433;BME280;41331;45.412;10.992;2022-08-01T06:00:23;100812.59;;;26.42;47.58
23433;BME280;41331;45.412;10.992;2022-08-01T06:02:50;100818.84;;;26.49;49.00
23433;BME280;41331;45.412;10.992;2022-08-01T06:05:18;100811.03;;;26.60;49.43
23433;BME280;41331;45.412;10.992;2022-08-01T06:07:45;100814.50;;;26.68;48.54
23433;BME280;41331;45.412;10.992;2022-08-01T06:10:13;100818.13;;;26.85;49.04
23433;BME280;41331;45.412;10.992;2022-08-01T06:12:40;100823.19;;;26.90;47.68
23433;BME280;41331;45.412;10.992;2022-08-01T06:15:08;100815.75;;;27.03;49.06
23433;BME280;41331;45.412;10.992;2022-08-01T06:17:35;100823.22;;;27.10;50.07
23433;BME280;41331;45.412;10.992;2022-08-01T06:20:04;100819.56;;;27.13;49.93
23433;BME280;41331;45.412;10.992;2022-08-01T06:22:34;100819.25;;;27.27;50.97
23433;BME280;41331;45.412;10.992;2022-08-01T06:25:02;100827.53;;;27.31;49.46
23433;BME280;41331;45.412;10.992;2022-08-01T06:27:29;100822.38;;;27.29;51.11
23433;BME280;41331;45.412;10.992;2022-08-01T06:29:56;100820.03;;;27.28;50.19
23433;BME280;41331;45.412;10.992;2022-08-01T06:32:24;100825.09;;;27.33;49.86
23433;BME280;41331;45.412;10.992;2022-08-01T06:34:54;100824.84;;;27.60;51.04
23433;BME280;41331;45.412;10.992;2022-08-01T06:37:23;100829.81;;;27.72;50.13
23433;BME280;41331;45.412;10.992;2022-08-01T06:39:50;100823.84;;;27.86;49.58
23433;BME280;41331;45.412;10.992;2022-08-01T06:42:17;100823.31;;;28.08;48.19
23433;BME280;41331;45.412;10.992;2022-08-01T06:44:45;100816.63;;;28.34;47.93
23433;BME280;41331;45.412;10.992;2022-08-01T06:47:12;100819.88;;;28.75;48.39
23433;BME280;41331;45.412;10.992;2022-08-01T06:49:40;100819.88;;;29.04;46.40
23433;BME280;41331;45.412;10.992;2022-08-01T06:52:07;100828.75;;;29.53;44.23
23433;BME280;41331;45.412;10.992;2022-08-01T06:54:36;100820.00;;;29.64;43.76
23433;BME280;41331;45.412;10.992;2022-08-01T06:57:06;100823.25;;;29.75;42.22
23433;BME280;41331;45.412;10.992;2022-08-01T06:59:35;100818.88;;;29.61;41.89
23433;BME280;41331;45.412;10.992;2022-08-01T07:02:03;100829.56;;;29.54;42.20
23433;BME280;41331;45.412;10.992;2022-08-01T07:04:31;100828.19;;;29.71;41.49
23433;BME280;41331;45.412;10.992;2022-08-01T07:07:01;100827.41;;;29.71;41.40
23433;BME280;41331;45.412;10.992;2022-08-01T07:09:29;100831.34;;;29.60;40.14
23433;BME280;41331;45.412;10.992;2022-08-01T07:11:56;100827.28;;;29.74;41.29
23433;BME280;41331;45.412;10.992;2022-08-01T07:14:24;100832.38;;;29.54;42.35
23433;BME280;41331;45.412;10.992;2022-08-01T07:16:51;100826.16;;;29.21;43.89
23433;BME280;41331;45.412;10.992;2022-08-01T07:19:19;100826.59;;;29.19;43.57
23433;BME280;41331;45.412;10.992;2022-08-01T07:21:46;100828.75;;;29.40;43.85
23433;BME280;41331;45.412;10.992;2022-08-01T07:24:16;100830.09;;;29.74;42.17
23433;BME280;41331;45.412;10.992;2022-08-01T07:26:48;100829.78;;;30.20;41.26
23433;BME280;41331;45.412;10.992;2022-08-01T07:29:22;100820.47;;;30.10;40.01
23433;BME280;41331;45.412;10.992;2022-08-01T07:31:54;100822.59;;;30.18;41.43
23433;BME280;41331;45.412;10.992;2022-08-01T07:34:22;100832.13;;;30.21;39.80
23433;BME280;41331;45.412;10.992;2022-08-01T07:36:51;100832.34;;;30.27;39.69
23433;BME280;41331;45.412;10.992;2022-08-01T07:39:19;100817.28;;;30.33;40.73
23433;BME280;41331;45.412;10.992;2022-08-01T07:41:47;100826.34;;;30.59;41.13
23433;BME280;41331;45.412;10.992;2022-08-01T07:44:35;100823.72;;;30.78;37.72
23433;BME280;41331;45.412;10.992;2022-08-01T07:47:04;100814.13;;;30.97;37.88
23433;BME280;41331;45.412;10.992;2022-08-01T07:49:31;100823.72;;;30.78;37.92
23433;BME280;41331;45.412;10.992;2022-08-01T07:52:06;100829.84;;;30.85;38.99
23433;BME280;41331;45.412;10.992;2022-08-01T07:54:33;100824.03;;;30.80;38.41
23433;BME280;41331;45.412;10.992;2022-08-01T07:57:03;100812.19;;;31.16;39.53
23433;BME280;41331;45.412;10.992;2022-08-01T07:59:31;100821.34;;;31.29;39.75
23433;BME280;41331;45.412;10.992;2022-08-01T08:01:59;100814.03;;;31.41;39.17
23433;BME280;41331;45.412;10.992;2022-08-01T08:04:28;100814.75;;;31.23;38.83
23433;BME280;41331;45.412;10.992;2022-08-01T08:06:55;100815.31;;;31.49;38.42
23433;BME280;41331;45.412;10.992;2022-08-01T08:09:23;100812.25;;;31.65;38.03
23433;BME280;41331;45.412;10.992;2022-08-01T08:11:51;100818.63;;;31.57;38.26
23433;BME280;41331;45.412;10.992;2022-08-01T08:14:18;100819.38;;;31.48;37.95
23433;BME280;41331;45.412;10.992;2022-08-01T08:16:46;100811.00;;;31.76;36.81
23433;BME280;41331;45.412;10.992;2022-08-01T08:19:14;100810.69;;;31.64;36.28
23433;BME280;41331;45.412;10.992;2022-08-01T08:21:42;100820.03;;;31.61;36.87
23433;BME280;41331;45.412;10.992;2022-08-01T08:24:10;100808.72;;;31.83;37.14
23433;BME280;41331;45.412;10.992;2022-08-01T08:26:55;100816.41;;;32.10;35.76
23433;BME280;41331;45.412;10.992;2022-08-01T08:29:23;100815.13;;;31.84;36.06
23433;BME280;41331;45.412;10.992;2022-08-01T08:31:52;100823.47;;;32.42;35.37
23433;BME280;41331;45.412;10.992;2022-08-01T08:34:20;100815.63;;;32.10;34.86
23433;BME280;41331;45.412;10.992;2022-08-01T08:36:49;100815.47;;;32.13;36.87
23433;BME280;41331;45.412;10.992;2022-08-01T08:39:16;100821.09;;;32.04;35.40
23433;BME280;41331;45.412;10.992;2022-08-01T08:41:47;100815.63;;;32.10;34.95
23433;BME280;41331;45.412;10.992;2022-08-01T08:44:17;100813.41;;;31.95;35.14
23433;BME280;41331;45.412;10.992;2022-08-01T08:46:50;100824.56;;;32.45;35.70
23433;BME280;41331;45.412;10.992;2022-08-01T08:49:20;100813.31;;;32.36;35.45
23433;BME280;41331;45.412;10.992;2022-08-01T08:51:50;100815.28;;;32.72;33.58
23433;BME280;41331;45.412;10.992;2022-08-01T08:54:21;100811.00;;;33.04;34.12
23433;BME280;41331;45.412;10.992;2022-08-01T08:56:59;100811.41;;;32.42;34.85
23433;BME280;41331;45.412;10.992;2022-08-01T08:59:27;100807.97;;;32.56;34.78
23433;BME280;41331;45.412;10.992;2022-08-01T09:01:57;100805.56;;;32.82;34.95
23433;BME280;41331;45.412;10.992;2022-08-01T09:04:25;100808.84;;;32.99;34.95
23433;BME280;41331;45.412;10.992;2022-08-01T09:06:53;100807.41;;;33.04;35.81
23433;BME280;41331;45.412;10.992;2022-08-01T09:09:22;100804.97;;;32.60;35.24
23433;BME280;41331;45.412;10.992;2022-08-01T09:11:50;100811.97;;;32.83;34.79
23433;BME280;41331;45.412;10.992;2022-08-01T09:14:24;100799.13;;;33.33;34.58
23433;BME280;41331;45.412;10.992;2022-08-01T09:19:46;100803.16;;;33.50;34.23
23433;BME280;41331;45.412;10.992;2022-08-01T09:22:17;100800.88;;;33.31;34.65
23433;BME280;41331;45.412;10.992;2022-08-01T09:25:00;100806.78;;;33.99;34.30
23433;BME280;41331;45.412;10.992;2022-08-01T09:27:28;100802.13;;;33.87;34.12
23433;BME280;41331;45.412;10.992;2022-08-01T09:30:08;100798.44;;;33.47;34.46
23433;BME280;41331;45.412;10.992;2022-08-01T09:32:53;100797.63;;;33.80;34.40
23433;BME280;41331;45.412;10.992;2022-08-01T09:35:23;100794.09;;;33.70;33.25
23433;BME280;41331;45.412;10.992;2022-08-01T09:40:56;100788.72;;;34.20;31.88
23433;BME280;41331;45.412;10.992;2022-08-01T09:43:33;100786.88;;;34.32;33.11
23433;BME280;41331;45.412;10.992;2022-08-01T09:46:10;100787.09;;;34.43;32.89
23433;BME280;41331;45.412;10.992;2022-08-01T09:49:02;100787.06;;;34.28;33.92
23433;BME280;41331;45.412;10.992;2022-08-01T09:51:36;100789.00;;;34.22;34.57
23433;BME280;41331;45.412;10.992;2022-08-01T09:54:32;100783.59;;;34.48;34.10
23433;BME280;41331;45.412;10.992;2022-08-01T09:57:12;100790.34;;;34.51;34.25
23433;BME280;41331;45.412;10.992;2022-08-01T09:59:46;100781.78;;;34.75;33.97
23433;BME280;41331;45.412;10.992;2022-08-01T10:02:29;100783.34;;;34.76;33.34
23433;BME280;41331;45.412;10.992;2022-08-01T10:04:57;100785.03;;;34.29;33.49
23433;BME280;41331;45.412;10.992;2022-08-01T10:07:34;100772.66;;;34.26;33.52
23433;BME280;41331;45.412;10.992;2022-08-01T10:10:13;100782.88;;;34.39;33.77
23433;BME280;41331;45.412;10.992;2022-08-01T10:12:42;100773.28;;;34.75;34.28
23433;BME280;41331;45.412;10.992;2022-08-01T10:15:14;100778.66;;;34.73;33.32
23433;BME280;41331;45.412;10.992;2022-08-01T10:17:51;100766.75;;;34.69;32.89
23433;BME280;41331;45.412;10.992;2022-08-01T10:20:26;100775.81;;;34.58;33.91
23433;BME280;41331;45.412;10.992;2022-08-01T10:23:02;100768.88;;;34.89;33.52
23433;BME280;41331;45.412;10.992;2022-08-01T10:25:38;100760.56;;;35.29;32.05
23433;BME280;41331;45.412;10.992;2022-08-01T10:28:14;100763.06;;;35.27;32.73
23433;BME280;41331;45.412;10.992;2022-08-01T10:30:48;100764.28;;;35.21;33.76
23433;BME280;41331;45.412;10.992;2022-08-01T10:33:18;100766.47;;;34.82;33.51
23433;BME280;41331;45.412;10.992;2022-08-01T10:36:08;100760.97;;;35.08;33.47
23433;BME280;41331;45.412;10.992;2022-08-01T10:38:37;100756.09;;;35.08;33.20
23433;BME280;41331;45.412;10.992;2022-08-01T10:41:05;100755.22;;;34.43;33.44
23433;BME280;41331;45.412;10.992;2022-08-01T10:43:35;100752.03;;;34.80;33.38
23433;BME280;41331;45.412;10.992;2022-08-01T10:46:03;100755.75;;;35.00;33.34
23433;BME280;41331;45.412;10.992;2022-08-01T10:48:47;100746.66;;;35.46;31.95
23433;BME280;41331;45.412;10.992;2022-08-01T10:51:18;100742.47;;;35.62;31.97
23433;BME280;41331;45.412;10.992;2022-08-01T10:53:52;100742.19;;;35.80;31.52
23433;BME280;41331;45.412;10.992;2022-08-01T10:56:23;100741.13;;;35.78;32.20
23433;BME280;41331;45.412;10.992;2022-08-01T10:59:03;100740.34;;;35.98;31.91
23433;BME280;41331;45.412;10.992;2022-08-01T11:01:33;100738.66;;;35.45;30.83
23433;BME280;41331;45.412;10.992;2022-08-01T11:04:08;100735.41;;;35.72;31.25
23433;BME280;41331;45.412;10.992;2022-08-01T11:06:49;100734.75;;;35.83;31.46
23433;BME280;41331;45.412;10.992;2022-08-01T11:09:39;100731.91;;;36.03;31.18
23433;BME280;41331;45.412;10.992;2022-08-01T11:12:12;100720.44;;;35.92;31.52
23433;BME280;41331;45.412;10.992;2022-08-01T11:17:35;100713.25;;;36.17;31.59
23433;BME280;41331;45.412;10.992;2022-08-01T11:20:13;100705.44;;;36.07;31.56
23433;BME280;41331;45.412;10.992;2022-08-01T11:23:16;100704.41;;;36.10;31.16
23433;BME280;41331;45.412;10.992;2022-08-01T11:28:33;100704.94;;;36.08;30.83
23433;BME280;41331;45.412;10.992;2022-08-01T11:39:10;100681.38;;;36.48;30.31
23433;BME280;41331;45.412;10.992;2022-08-01T11:41:41;100678.03;;;36.24;30.87
23433;BME280;41331;45.412;10.992;2022-08-01T11:52:05;100667.06;;;36.37;28.75
23433;BME280;41331;45.412;10.992;2022-08-01T11:54:37;100669.41;;;36.39;28.66
23433;BME280;41331;45.412;10.992;2022-08-01T11:59:44;100668.47;;;36.47;28.27
23433;BME280;41331;45.412;10.992;2022-08-01T12:02:38;100659.56;;;36.34;29.09
23433;BME280;41331;45.412;10.992;2022-08-01T12:05:08;100656.88;;;36.19;29.45
23433;BME280;41331;45.412;10.992;2022-08-01T12:07:39;100652.94;;;36.11;28.03
23433;BME280;41331;45.412;10.992;2022-08-01T12:10:12;100644.13;;;36.67;28.11
23433;BME280;41331;45.412;10.992;2022-08-01T12:12:47;100649.59;;;36.70;28.03
23433;BME280;41331;45.412;10.992;2022-08-01T12:15:20;100637.22;;;36.73;28.37
23433;BME280;41331;45.412;10.992;2022-08-01T12:17:54;100645.50;;;36.77;28.00
23433;BME280;41331;45.412;10.992;2022-08-01T12:20:25;100643.50;;;36.89;27.73
23433;BME280;41331;45.412;10.992;2022-08-01T12:22:59;100642.38;;;36.75;27.62
23433;BME280;41331;45.412;10.992;2022-08-01T12:25:27;100641.97;;;36.50;28.85
23433;BME280;41331;45.412;10.992;2022-08-01T12:27:55;100636.41;;;36.36;29.29
23433;BME280;41331;45.412;10.992;2022-08-01T12:30:26;100628.06;;;36.21;28.60
23433;BME280;41331;45.412;10.992;2022-08-01T12:32:54;100626.72;;;36.16;29.86
23433;BME280;41331;45.412;10.992;2022-08-01T12:35:25;100625.53;;;36.28;29.45
23433;BME280;41331;45.412;10.992;2022-08-01T12:37:55;100623.16;;;35.69;30.50
23433;BME280;41331;45.412;10.992;2022-08-01T12:42:54;100621.38;;;35.46;28.74
23433;BME280;41331;45.412;10.992;2022-08-01T12:45:25;100621.69;;;36.00;28.14
23433;BME280;41331;45.412;10.992;2022-08-01T12:47:54;100621.44;;;36.03;28.27
23433;BME280;41331;45.412;10.992;2022-08-01T12:50:23;100605.97;;;35.99;27.46
23433;BME280;41331;45.412;10.992;2022-08-01T12:52:52;100614.75;;;36.01;27.00
23433;BME280;41331;45.412;10.992;2022-08-01T12:55:24;100614.47;;;35.99;26.95
23433;BME280;41331;45.412;10.992;2022-08-01T12:58:30;100603.50;;;36.12;27.77
23433;BME280;41331;45.412;10.992;2022-08-01T13:01:09;100605.56;;;35.86;27.97
23433;BME280;41331;45.412;10.992;2022-08-01T13:03:38;100598.19;;;35.94;27.94
23433;BME280;41331;45.412;10.992;2022-08-01T13:06:11;100608.06;;;36.04;27.72
23433;BME280;41331;45.412;10.992;2022-08-01T13:08:39;100605.78;;;35.82;27.79
23433;BME280;41331;45.412;10.992;2022-08-01T13:11:09;100602.03;;;35.65;27.79
23433;BME280;41331;45.412;10.992;2022-08-01T13:16:17;100596.13;;;35.94;28.00
23433;BME280;41331;45.412;10.992;2022-08-01T13:19:05;100587.16;;;35.70;28.40
23433;BME280;41331;45.412;10.992;2022-08-01T13:21:34;100594.13;;;35.74;29.12
23433;BME280;41331;45.412;10.992;2022-08-01T13:24:26;100583.47;;;35.90;29.35
23433;BME280;41331;45.412;10.992;2022-08-01T13:26:56;100586.38;;;35.95;28.84
23433;BME280;41331;45.412;10.992;2022-08-01T13:29:33;100581.03;;;36.03;28.97
23433;BME280;41331;45.412;10.992;2022-08-01T13:35:08;100576.97;;;35.84;28.87
23433;BME280;41331;45.412;10.992;2022-08-01T13:37:36;100579.78;;;35.84;29.42
23433;BME280;41331;45.412;10.992;2022-08-01T13:40:06;100570.22;;;35.75;29.20
23433;BME280;41331;45.412;10.992;2022-08-01T13:42:35;100575.38;;;35.51;29.21
23433;BME280;41331;45.412;10.992;2022-08-01T13:45:04;100573.94;;;35.41;28.23
23433;BME280;41331;45.412;10.992;2022-08-01T13:47:44;100572.31;;;35.80;28.74